createdAt,value
2022-11-09T00:00:53.289Z,3.7
2022-11-09T00:02:01.613Z,3.7
2022-11-09T00:03:10.185Z,3.7
2022-11-09T00:04:18.546Z,3.7
2022-11-09T00:05:26.894Z,3.7
2022-11-09T00:06:35.542Z,4.6
2022-11-09T00:07:43.748Z,4.6
2022-11-09T00:08:52.098Z,4.6
2022-11-09T00:10:00.689Z,4.3
2022-11-09T00:11:08.973Z,4.3
2022-11-09T00:12:17.306Z,4.3
2022-11-09T00:13:25.863Z,3.2
2022-11-09T00:14:34.189Z,3.2
2022-11-09T00:15:42.538Z,3.2
2022-11-09T00:16:51.129Z,6.8
2022-11-09T00:17:59.450Z,6.8
2022-11-09T00:19:07.805Z,6.8
2022-11-09T00:20:16.348Z,3.7
2022-11-09T00:21:24.806Z,3.7
2022-11-09T00:22:33.056Z,3.7
2022-11-09T00:23:41.622Z,3.9
2022-11-09T00:24:50.001Z,3.9
2022-11-09T00:25:58.331Z,3.9
2022-11-09T00:27:06.912Z,3
2022-11-09T00:28:15.276Z,3
2022-11-09T00:29:23.624Z,3
2022-11-09T00:30:32.148Z,3
2022-11-09T00:31:40.481Z,3
2022-11-09T00:32:48.842Z,3
2022-11-09T00:33:57.412Z,3.6
2022-11-09T00:35:05.755Z,3.6
2022-11-09T00:36:14.099Z,3.6
2022-11-09T00:37:22.714Z,3.7
2022-11-09T00:38:31.014Z,3.7
2022-11-09T00:39:39.379Z,3.7
2022-11-09T00:40:47.927Z,4.2
2022-11-09T00:41:56.269Z,4.2
2022-11-09T00:43:04.615Z,4.2
2022-11-09T00:44:13.186Z,3.4
2022-11-09T00:45:21.535Z,3.4
2022-11-09T00:46:29.879Z,3.4
2022-11-09T00:47:38.419Z,3.8
2022-11-09T00:48:46.777Z,3.8
2022-11-09T00:49:55.154Z,3.8
2022-11-09T00:51:03.700Z,3.1
2022-11-09T00:52:12.037Z,3.1
2022-11-09T00:53:20.681Z,3.1
2022-11-09T00:54:28.929Z,4.2
2022-11-09T00:55:37.264Z,4.2
2022-11-09T00:56:45.614Z,4.2
2022-11-09T00:57:54.166Z,4.2
2022-11-09T00:59:02.522Z,4.2
2022-11-09T01:00:10.883Z,4.2
2022-11-09T01:01:19.486Z,3.2
2022-11-09T01:02:27.768Z,3.2
2022-11-09T01:03:36.138Z,3.2
2022-11-09T01:04:44.701Z,3.9
2022-11-09T01:05:53.035Z,3.9
2022-11-09T01:07:01.443Z,3.9
2022-11-09T01:08:09.913Z,3.1
2022-11-09T01:09:18.282Z,3.1
2022-11-09T01:10:26.589Z,3.1
2022-11-09T01:11:35.145Z,3.6
2022-11-09T01:12:43.493Z,3.6
2022-11-09T01:13:51.837Z,3.6
2022-11-09T01:15:00.386Z,3.3
2022-11-09T01:16:08.748Z,3.3
2022-11-09T01:17:17.088Z,3.3
2022-11-09T01:18:25.691Z,3.3
2022-11-09T01:19:34.025Z,3.3
2022-11-09T01:20:42.390Z,3.3
2022-11-09T01:21:50.941Z,2.6
2022-11-09T01:22:59.316Z,2.6
2022-11-09T01:24:07.655Z,2.6
2022-11-09T01:25:16.246Z,3.8
2022-11-09T01:26:24.568Z,3.8
2022-11-09T01:27:32.935Z,3.8
2022-11-09T01:28:41.493Z,4.6
2022-11-09T01:29:49.842Z,4.6
2022-11-09T01:30:58.183Z,4.6
2022-11-09T01:32:06.727Z,3.8
2022-11-09T01:33:15.103Z,3.8
2022-11-09T01:34:23.438Z,3.8
2022-11-09T01:35:31.990Z,3.3
2022-11-09T01:36:40.325Z,3.3
2022-11-09T01:37:48.700Z,3.3
2022-11-09T01:38:57.252Z,3.9
2022-11-09T01:40:05.622Z,3.9
2022-11-09T01:41:13.980Z,3.9
2022-11-09T01:42:22.493Z,3.9
2022-11-09T01:43:30.839Z,3.9
2022-11-09T01:44:39.177Z,3.9
2022-11-09T01:45:47.717Z,3.7
2022-11-09T01:46:56.079Z,3.7
2022-11-09T01:48:04.423Z,3.7
2022-11-09T01:49:12.992Z,4.4
2022-11-09T01:50:21.304Z,4.4
2022-11-09T01:51:29.678Z,4.4
2022-11-09T01:52:38.209Z,3.6
2022-11-09T01:53:46.577Z,3.6
2022-11-09T01:54:54.923Z,3.6
2022-11-09T01:56:03.466Z,4.2
2022-11-09T01:57:11.829Z,4.2
2022-11-09T01:58:20.145Z,4.2
2022-11-09T01:59:28.686Z,4.3
2022-11-09T02:00:37.022Z,4.3
2022-11-09T02:01:45.453Z,4.3
2022-11-09T02:02:53.919Z,3.4
2022-11-09T02:04:02.305Z,3.4
2022-11-09T02:05:10.653Z,3.4
2022-11-09T02:06:19.221Z,5.5
2022-11-09T02:07:27.569Z,5.5
2022-11-09T02:08:35.942Z,5.5
2022-11-09T02:09:44.485Z,4.1
2022-11-09T02:10:52.864Z,4.1
2022-11-09T02:12:01.193Z,4.1
2022-11-09T02:13:09.798Z,4.6
2022-11-09T02:14:18.128Z,4.6
2022-11-09T02:15:26.489Z,4.6
2022-11-09T02:16:35.039Z,3.1
2022-11-09T02:17:43.375Z,3.1
2022-11-09T02:18:51.718Z,3.1
2022-11-09T02:20:00.268Z,4.1
2022-11-09T02:21:08.651Z,4.1
2022-11-09T02:22:17.008Z,4.1
2022-11-09T02:23:25.572Z,5.1
2022-11-09T02:24:33.904Z,5.1
2022-11-09T02:25:42.240Z,5.1
2022-11-09T02:26:50.801Z,6.3
2022-11-09T02:27:59.170Z,6.3
2022-11-09T02:29:07.536Z,6.3
2022-11-09T02:30:16.063Z,4.7
2022-11-09T02:31:24.391Z,4.7
2022-11-09T02:32:32.747Z,4.7
2022-11-09T02:33:41.311Z,4.1
2022-11-09T02:34:49.650Z,4.1
2022-11-09T02:35:57.985Z,4.1
2022-11-09T02:37:06.527Z,3.9
2022-11-09T02:38:14.877Z,3.9
2022-11-09T02:39:23.220Z,3.9
2022-11-09T02:40:31.754Z,3.4
2022-11-09T02:41:40.136Z,3.4
2022-11-09T02:42:48.483Z,3.4
2022-11-09T02:43:57.037Z,6.2
2022-11-09T02:45:05.428Z,6.2
2022-11-09T02:46:13.753Z,6.2
2022-11-09T02:47:22.300Z,4.2
2022-11-09T02:48:30.650Z,4.2
2022-11-09T02:49:38.999Z,4.2
2022-11-09T02:50:47.547Z,4.5
2022-11-09T02:51:55.889Z,4.5
2022-11-09T02:53:04.229Z,4.5
2022-11-09T02:54:12.775Z,3.8
2022-11-09T02:55:21.127Z,3.8
2022-11-09T02:56:29.470Z,3.8
2022-11-09T02:57:38.022Z,4.1
2022-11-09T02:58:46.357Z,4.1
2022-11-09T02:59:54.684Z,4.1
2022-11-09T03:01:03.319Z,3.7
2022-11-09T03:02:11.555Z,3.7
2022-11-09T03:03:20.157Z,3.7
2022-11-09T03:04:28.459Z,3.8
2022-11-09T03:05:36.782Z,3.8
2022-11-09T03:06:45.149Z,3.8
2022-11-09T03:07:53.668Z,4
2022-11-09T03:09:02.049Z,4
2022-11-09T03:10:10.380Z,4
2022-11-09T03:11:18.927Z,4.5
2022-11-09T03:12:27.262Z,4.5
2022-11-09T03:13:35.600Z,4.5
2022-11-09T03:14:44.144Z,3.9
2022-11-09T03:15:52.482Z,3.9
2022-11-09T03:17:00.841Z,3.9
2022-11-09T03:18:09.372Z,3.8
2022-11-09T03:19:17.699Z,3.8
2022-11-09T03:20:26.045Z,3.8
2022-11-09T03:21:34.615Z,4.4
2022-11-09T03:22:42.926Z,4.4
2022-11-09T03:23:51.259Z,4.4
2022-11-09T03:24:59.805Z,4
2022-11-09T03:26:08.142Z,4
2022-11-09T03:27:16.498Z,4
2022-11-09T03:28:25.030Z,5.8
2022-11-09T03:29:33.371Z,5.8
2022-11-09T03:30:41.753Z,5.8
2022-11-09T03:31:50.296Z,5.7
2022-11-09T03:32:58.673Z,5.7
2022-11-09T03:34:06.980Z,5.7
2022-11-09T03:35:15.530Z,6.7
2022-11-09T03:36:23.901Z,6.7
2022-11-09T03:37:32.306Z,6.7
2022-11-09T03:38:40.776Z,4.9
2022-11-09T03:39:49.107Z,4.9
2022-11-09T03:40:57.443Z,4.9
2022-11-09T03:42:05.997Z,4.6
2022-11-09T03:43:14.331Z,4.6
2022-11-09T03:44:22.697Z,4.6
2022-11-09T03:45:31.243Z,4.4
2022-11-09T03:46:39.580Z,4.4
2022-11-09T03:47:47.929Z,4.4
2022-11-09T03:48:56.545Z,4.1
2022-11-09T03:50:04.806Z,4.1
2022-11-09T03:51:13.145Z,4.1
2022-11-09T03:52:21.706Z,5.2
2022-11-09T03:53:30.034Z,5.2
2022-11-09T03:54:38.369Z,5.2
2022-11-09T03:55:46.903Z,4.7
2022-11-09T03:56:55.306Z,4.7
2022-11-09T03:58:03.605Z,4.7
2022-11-09T03:59:12.156Z,5.1
2022-11-09T04:00:20.497Z,5.1
2022-11-09T04:01:28.877Z,5.1
2022-11-09T04:02:37.397Z,6.1
2022-11-09T04:03:45.722Z,6.1
2022-11-09T04:04:54.084Z,6.1
2022-11-09T04:06:02.597Z,5.2
2022-11-09T04:07:11.028Z,5.2
2022-11-09T04:08:19.272Z,5.2
2022-11-09T04:09:27.820Z,5.4
2022-11-09T04:10:36.155Z,5.4
2022-11-09T04:11:44.487Z,5.4
2022-11-09T04:12:53.023Z,5.1
2022-11-09T04:14:01.368Z,5.1
2022-11-09T04:15:09.686Z,5.1
2022-11-09T04:16:18.255Z,5
2022-11-09T04:17:26.589Z,5
2022-11-09T04:18:34.943Z,5
2022-11-09T04:19:43.487Z,4.6
2022-11-09T04:20:51.854Z,4.6
2022-11-09T04:22:00.181Z,4.6
2022-11-09T04:23:08.716Z,6.3
2022-11-09T04:24:17.050Z,6.3
2022-11-09T04:25:25.396Z,6.3
2022-11-09T04:26:33.963Z,4.8
2022-11-09T04:27:42.317Z,4.8
2022-11-09T04:28:50.691Z,4.8
2022-11-09T04:29:59.248Z,5.3
2022-11-09T04:31:07.586Z,5.3
2022-11-09T04:32:15.934Z,5.3
2022-11-09T04:33:24.528Z,4.9
2022-11-09T04:34:32.891Z,4.9
2022-11-09T04:35:41.242Z,4.9
2022-11-09T04:36:49.801Z,5.2
2022-11-09T04:37:58.127Z,5.2
2022-11-09T04:39:06.484Z,5.2
2022-11-09T04:40:15.046Z,4
2022-11-09T04:41:23.382Z,4
2022-11-09T04:42:31.725Z,4
2022-11-09T04:43:40.329Z,5.5
2022-11-09T04:44:48.677Z,5.5
2022-11-09T04:45:57.032Z,5.5
2022-11-09T04:47:05.585Z,5.3
2022-11-09T04:48:13.937Z,5.3
2022-11-09T04:49:22.289Z,5.3
2022-11-09T04:50:30.824Z,6.8
2022-11-09T04:51:39.189Z,6.8
2022-11-09T04:52:47.541Z,6.8
2022-11-09T04:53:56.077Z,5.8
2022-11-09T04:55:04.416Z,5.8
2022-11-09T04:56:12.780Z,5.8
2022-11-09T04:57:21.320Z,6.6
2022-11-09T04:58:29.702Z,6.6
2022-11-09T04:59:38.023Z,6.6
2022-11-09T05:00:46.599Z,6.2
2022-11-09T05:01:54.944Z,6.2
2022-11-09T05:03:03.279Z,6.2
2022-11-09T05:04:11.885Z,5.3
2022-11-09T05:05:20.180Z,5.3
2022-11-09T05:06:28.596Z,5.3
2022-11-09T05:07:37.128Z,6.4
2022-11-09T05:08:45.505Z,6.4
2022-11-09T05:09:53.822Z,6.4
2022-11-09T05:11:02.369Z,6.8
2022-11-09T05:12:10.725Z,6.8
2022-11-09T05:13:19.356Z,6.8
2022-11-09T05:14:27.642Z,6.6
2022-11-09T05:15:35.980Z,6.6
2022-11-09T05:16:44.342Z,6.6
2022-11-09T05:17:52.939Z,8.8
2022-11-09T05:19:01.245Z,8.8
2022-11-09T05:20:09.912Z,8.8
2022-11-09T05:21:18.461Z,7
2022-11-09T05:22:26.835Z,7
2022-11-09T05:23:35.176Z,7
2022-11-09T05:24:43.894Z,6.3
2022-11-09T05:25:52.100Z,6.3
2022-11-09T05:27:00.449Z,6.3
2022-11-09T05:28:09.740Z,6.2
2022-11-09T05:29:17.375Z,6.2
2022-11-09T05:30:26.603Z,6.2
2022-11-09T05:31:35.149Z,7.9
2022-11-09T05:32:43.522Z,7.9
2022-11-09T05:33:51.890Z,7.9
2022-11-09T05:35:00.436Z,6.9
2022-11-09T05:36:08.786Z,6.9
2022-11-09T05:37:17.129Z,6.9
2022-11-09T05:38:25.696Z,6.9
2022-11-09T05:39:34.035Z,6.9
2022-11-09T05:40:42.400Z,6.9
2022-11-09T05:41:50.952Z,7.9
2022-11-09T05:42:59.293Z,7.9
2022-11-09T05:44:07.658Z,7.9
2022-11-09T05:45:40.644Z,7
2022-11-09T05:46:24.524Z,7
2022-11-09T05:47:32.882Z,7
2022-11-09T05:48:41.412Z,8.5
2022-11-09T05:49:49.747Z,8.5
2022-11-09T05:50:58.097Z,8.5
2022-11-09T05:52:06.653Z,7.6
2022-11-09T05:53:15.000Z,7.6
2022-11-09T05:54:23.346Z,7.6
2022-11-09T05:55:31.931Z,9
2022-11-09T05:56:40.299Z,9
2022-11-09T05:57:48.620Z,9
2022-11-09T05:58:57.158Z,7.4
2022-11-09T06:00:09.928Z,7.4
2022-11-09T06:01:13.829Z,7.4
2022-11-09T06:02:22.472Z,8.2
2022-11-09T06:03:30.720Z,8.2
2022-11-09T06:04:39.061Z,8.2
2022-11-09T06:05:47.633Z,8.4
2022-11-09T06:06:56.067Z,8.4
2022-11-09T06:08:04.358Z,8.4
2022-11-09T06:09:12.898Z,9.7
2022-11-09T06:10:21.272Z,9.7
2022-11-09T06:11:29.635Z,9.7
2022-11-09T06:12:38.220Z,7.3
2022-11-09T06:13:46.523Z,7.3
2022-11-09T06:14:54.862Z,7.3
2022-11-09T06:16:03.426Z,7.6
2022-11-09T06:17:11.772Z,7.6
2022-11-09T06:18:20.127Z,7.6
2022-11-09T06:19:28.682Z,7.4
2022-11-09T06:20:37.070Z,7.4
2022-11-09T06:21:45.427Z,7.4
2022-11-09T06:22:55.733Z,8.9
2022-11-09T06:24:02.341Z,8.9
2022-11-09T06:25:10.691Z,8.9
2022-11-09T06:26:19.236Z,9
2022-11-09T06:27:27.599Z,9
2022-11-09T06:28:35.964Z,9
2022-11-09T06:29:44.500Z,7.5
2022-11-09T06:30:52.832Z,7.5
2022-11-09T06:32:01.195Z,7.5
2022-11-09T06:33:09.755Z,7.9
2022-11-09T06:34:18.086Z,7.9
2022-11-09T06:35:26.429Z,7.9
2022-11-09T06:36:34.994Z,9.2
2022-11-09T06:37:43.328Z,9.2
2022-11-09T06:38:51.671Z,9.2
2022-11-09T06:40:00.218Z,9.2
2022-11-09T06:41:08.601Z,9.2
2022-11-09T06:42:16.953Z,9.2
2022-11-09T06:43:25.464Z,22.799999
2022-11-09T06:44:33.819Z,22.799999
2022-11-09T06:45:42.133Z,22.799999
2022-11-09T06:46:50.674Z,9.5
2022-11-09T06:47:59.001Z,9.5
2022-11-09T06:49:07.347Z,9.5
2022-11-09T06:50:15.915Z,11.8
2022-11-09T06:51:24.281Z,11.8
2022-11-09T06:52:32.639Z,11.8
2022-11-09T06:53:41.180Z,380.39999
2022-11-09T06:54:49.539Z,380.39999
2022-11-09T06:55:57.895Z,380.39999
2022-11-09T06:57:06.437Z,133.1
2022-11-09T06:58:14.769Z,133.1
2022-11-09T06:59:23.107Z,133.1
2022-11-09T07:00:31.756Z,116.69999
2022-11-09T07:01:40.059Z,116.69999
2022-11-09T07:02:48.335Z,116.69999
2022-11-09T07:03:56.885Z,70
2022-11-09T07:05:05.237Z,70
2022-11-09T07:06:13.579Z,70
2022-11-09T07:07:26.545Z,264.79998
2022-11-09T07:08:30.469Z,264.79998
2022-11-09T07:09:38.817Z,264.79998
2022-11-09T07:10:47.365Z,306.1
2022-11-09T07:11:55.702Z,306.1
2022-11-09T07:13:04.043Z,306.1
2022-11-09T07:14:12.640Z,114.5
2022-11-09T07:15:20.980Z,114.5
2022-11-09T07:16:29.345Z,114.5
2022-11-09T07:17:37.868Z,97.699997
2022-11-09T07:18:46.202Z,97.699997
2022-11-09T07:19:54.538Z,97.699997
2022-11-09T07:21:03.103Z,48
2022-11-09T07:22:11.436Z,48
2022-11-09T07:23:20.098Z,48
2022-11-09T07:24:28.332Z,51.599998
2022-11-09T07:25:36.676Z,51.599998
2022-11-09T07:26:45.007Z,51.599998
2022-11-09T07:27:53.568Z,20.9
2022-11-09T07:29:01.895Z,20.9
2022-11-09T07:30:10.257Z,20.9
2022-11-09T07:31:18.788Z,15.3
2022-11-09T07:32:46.901Z,15.3
2022-11-09T07:33:35.471Z,15.3
2022-11-09T07:34:44.021Z,10.6
2022-11-09T07:35:52.361Z,10.6
2022-11-09T07:37:00.694Z,10.6
2022-11-09T07:38:09.242Z,36.599998
2022-11-09T07:39:17.573Z,36.599998
2022-11-09T07:40:25.924Z,36.599998
2022-11-09T07:41:34.945Z,39.5
2022-11-09T07:42:42.797Z,39.5
2022-11-09T07:43:51.142Z,39.5
2022-11-09T07:44:59.691Z,16.6
2022-11-09T07:46:08.064Z,16.6
2022-11-09T07:47:18.343Z,16.6
2022-11-09T07:48:25.000Z,10
2022-11-09T07:49:33.334Z,10
2022-11-09T07:50:41.682Z,10
2022-11-09T07:51:50.234Z,9.6
2022-11-09T07:52:58.579Z,9.6
2022-11-09T07:54:06.913Z,9.6
2022-11-09T07:55:15.480Z,11.1
2022-11-09T07:56:23.811Z,11.1
2022-11-09T07:57:32.154Z,11.1
2022-11-09T07:58:40.689Z,14.5
2022-11-09T07:59:49.036Z,14.5
2022-11-09T08:00:58.186Z,14.5
2022-11-09T08:02:06.822Z,11.7
2022-11-09T08:03:15.549Z,11.7
2022-11-09T08:04:23.946Z,11.7
2022-11-09T08:05:32.461Z,13.9
2022-11-09T08:06:40.857Z,13.9
2022-11-09T08:07:49.178Z,13.9
2022-11-09T08:08:57.747Z,10.6
2022-11-09T08:10:06.124Z,10.6
2022-11-09T08:11:14.463Z,10.6
2022-11-09T08:12:23.026Z,10.7
2022-11-09T08:13:31.362Z,10.7
2022-11-09T08:14:39.722Z,10.7
2022-11-09T08:15:48.266Z,11.1
2022-11-09T08:16:56.604Z,11.1
2022-11-09T08:18:04.975Z,11.1
2022-11-09T08:19:13.527Z,9.3
2022-11-09T08:20:21.904Z,9.3
2022-11-09T08:21:30.300Z,9.3
2022-11-09T08:22:38.852Z,9.4
2022-11-09T08:23:47.204Z,9.4
2022-11-09T08:24:55.548Z,9.4
2022-11-09T08:26:04.112Z,9.5
2022-11-09T08:27:12.517Z,9.5
2022-11-09T08:28:21.146Z,9.5
2022-11-09T08:29:29.389Z,8.9
2022-11-09T08:30:37.742Z,8.9
2022-11-09T08:31:46.088Z,8.9
2022-11-09T08:32:54.630Z,8.1
2022-11-09T08:34:03.030Z,8.1
2022-11-09T08:35:11.377Z,8.1
2022-11-09T08:36:19.963Z,9.3
2022-11-09T08:37:28.302Z,9.3
2022-11-09T08:38:36.661Z,9.3
2022-11-09T08:39:45.211Z,7.9
2022-11-09T08:40:53.568Z,7.9
2022-11-09T08:42:01.937Z,7.9
2022-11-09T08:43:10.489Z,8.8
2022-11-09T08:44:18.844Z,8.8
2022-11-09T08:45:27.210Z,8.8
2022-11-09T08:46:40.007Z,11.4
2022-11-09T08:47:44.139Z,11.4
2022-11-09T08:48:52.496Z,11.4
2022-11-09T08:50:01.046Z,10.7
2022-11-09T08:51:09.412Z,10.7
2022-11-09T08:52:17.773Z,10.7
2022-11-09T08:53:26.326Z,9.9
2022-11-09T08:54:34.665Z,9.9
2022-11-09T08:55:45.860Z,9.9
2022-11-09T08:56:51.554Z,10.5
2022-11-09T08:57:59.939Z,10.5
2022-11-09T08:59:08.329Z,10.5
2022-11-09T09:00:16.859Z,9.5
2022-11-09T09:01:25.233Z,9.5
2022-11-09T09:02:33.540Z,9.5
2022-11-09T09:03:42.098Z,8.4
2022-11-09T09:04:50.449Z,8.4
2022-11-09T09:05:58.796Z,8.4
2022-11-09T09:07:07.432Z,9
2022-11-09T09:08:15.720Z,9
2022-11-09T09:09:24.027Z,9
2022-11-09T09:10:32.596Z,10.8
2022-11-09T09:11:41.000Z,10.8
2022-11-09T09:12:49.328Z,10.8
2022-11-09T09:13:57.878Z,9
2022-11-09T09:15:06.218Z,9
2022-11-09T09:16:14.621Z,9
2022-11-09T09:17:23.162Z,85.900002
2022-11-09T09:18:31.588Z,85.900002
2022-11-09T09:19:39.940Z,85.900002
2022-11-09T09:20:48.482Z,30.6
2022-11-09T09:21:56.820Z,30.6
2022-11-09T09:23:05.167Z,30.6
2022-11-09T09:24:13.747Z,14.4
2022-11-09T09:25:22.068Z,14.4
2022-11-09T09:26:30.404Z,14.4
2022-11-09T09:27:38.949Z,14.5
2022-11-09T09:28:47.336Z,14.5
2022-11-09T09:29:55.675Z,14.5
2022-11-09T09:31:04.248Z,45
2022-11-09T09:32:12.586Z,45
2022-11-09T09:33:20.938Z,45
2022-11-09T09:34:29.520Z,7.8
2022-11-09T09:35:37.845Z,7.8
2022-11-09T09:36:48.132Z,7.8
2022-11-09T09:37:54.729Z,8.2
2022-11-09T09:39:03.079Z,8.2
2022-11-09T09:40:11.435Z,8.2
2022-11-09T09:41:19.957Z,9.1
2022-11-09T09:42:28.292Z,9.1
2022-11-09T09:43:41.664Z,9.1
2022-11-09T09:44:45.190Z,10.6
2022-11-09T09:45:53.526Z,10.6
2022-11-09T09:47:01.858Z,10.6
2022-11-09T09:48:10.413Z,16.4
2022-11-09T09:49:18.750Z,16.4
2022-11-09T09:50:27.174Z,16.4
2022-11-09T09:51:35.638Z,8.7
2022-11-09T09:52:50.691Z,8.7
2022-11-09T09:53:52.324Z,8.7
2022-11-09T09:55:00.871Z,9.3
2022-11-09T09:56:09.230Z,9.3
2022-11-09T09:57:17.530Z,9.3
2022-11-09T09:58:26.085Z,8.4
2022-11-09T09:59:34.419Z,8.4
2022-11-09T10:00:42.776Z,8.4
2022-11-09T10:01:51.317Z,8.4
2022-11-09T10:02:59.665Z,8.4
2022-11-09T10:04:08.049Z,8.4
2022-11-09T10:05:16.555Z,9.5
2022-11-09T10:06:24.880Z,9.5
2022-11-09T10:07:33.214Z,9.5
2022-11-09T10:08:41.775Z,12.4
2022-11-09T10:09:50.113Z,12.4
2022-11-09T10:10:58.442Z,12.4
2022-11-09T10:12:07.010Z,9.5
2022-11-09T10:13:15.402Z,9.5
2022-11-09T10:14:23.664Z,9.5
2022-11-09T10:15:32.260Z,7.5
2022-11-09T10:16:40.590Z,7.5
2022-11-09T10:17:48.940Z,7.5
2022-11-09T10:18:57.474Z,9.5
2022-11-09T10:20:05.821Z,9.5
2022-11-09T10:21:14.160Z,9.5
2022-11-09T10:22:22.711Z,7.8
2022-11-09T10:23:31.043Z,7.8
2022-11-09T10:24:44.520Z,7.8
2022-11-09T10:26:03.401Z,6.4
2022-11-09T10:26:56.302Z,6.4
2022-11-09T10:28:04.957Z,6.4
2022-11-09T10:29:17.142Z,8.7
2022-11-09T10:30:21.545Z,8.7
2022-11-09T10:31:29.876Z,8.7
2022-11-09T10:32:38.437Z,7
2022-11-09T10:33:46.758Z,7
2022-11-09T10:34:55.095Z,7
2022-11-09T10:36:07.964Z,6.1
2022-11-09T10:37:11.965Z,6.1
2022-11-09T10:38:20.608Z,6.1
2022-11-09T10:39:28.851Z,5.6
2022-11-09T10:40:37.189Z,5.6
2022-11-09T10:41:45.533Z,5.6
2022-11-09T10:42:54.089Z,6.1
2022-11-09T10:44:02.724Z,6.1
2022-11-09T10:45:10.842Z,6.1
2022-11-09T10:46:19.392Z,6
2022-11-09T10:47:27.818Z,6
2022-11-09T10:48:36.198Z,6
2022-11-09T10:49:44.910Z,5.1
2022-11-09T10:50:53.318Z,5.1
2022-11-09T10:52:01.663Z,5.1
2022-11-09T10:53:10.229Z,4.8
2022-11-09T10:54:18.570Z,4.8
2022-11-09T10:55:26.905Z,4.8
2022-11-09T10:56:41.837Z,4.4
2022-11-09T10:57:43.790Z,4.4
2022-11-09T10:58:52.130Z,4.4
2022-11-09T11:00:00.702Z,4.8
2022-11-09T11:01:09.115Z,4.8
2022-11-09T11:02:17.536Z,4.8
2022-11-09T11:03:25.983Z,4.2
2022-11-09T11:04:34.345Z,4.2
2022-11-09T11:05:42.686Z,4.2
2022-11-09T11:06:51.320Z,4
2022-11-09T11:07:59.631Z,4
2022-11-09T11:09:08.001Z,4
2022-11-09T11:10:16.554Z,3.4
2022-11-09T11:11:33.584Z,3.4
2022-11-09T11:12:33.329Z,3.4
2022-11-09T11:13:41.873Z,4
2022-11-09T11:14:50.232Z,4
2022-11-09T11:15:58.587Z,4
2022-11-09T11:17:07.174Z,3.5
2022-11-09T11:18:15.516Z,3.5
2022-11-09T11:19:23.857Z,3.5
2022-11-09T11:20:32.400Z,4.9
2022-11-09T11:21:40.740Z,4.9
2022-11-09T11:22:49.075Z,4.9
2022-11-09T11:23:57.690Z,3.6
2022-11-09T11:25:06.043Z,3.6
2022-11-09T11:26:14.378Z,3.6
2022-11-09T11:27:22.929Z,4
2022-11-09T11:28:31.270Z,4
2022-11-09T11:29:39.712Z,4
2022-11-09T11:30:48.265Z,4.1
2022-11-09T11:31:56.629Z,4.1
2022-11-09T11:33:04.945Z,4.1
2022-11-09T11:34:22.671Z,4
2022-11-09T11:35:21.827Z,4
2022-11-09T11:36:30.172Z,4
2022-11-09T11:37:38.733Z,4.2
2022-11-09T11:38:47.084Z,4.2
2022-11-09T11:39:55.430Z,4.2
2022-11-09T11:41:04.032Z,3.3
2022-11-09T11:42:12.414Z,3.3
2022-11-09T11:43:21.185Z,3.3
2022-11-09T11:44:29.426Z,3.2
2022-11-09T11:45:40.953Z,3.2
2022-11-09T11:46:46.561Z,3.2
2022-11-09T11:47:55.276Z,3.2
2022-11-09T11:49:03.499Z,3.2
2022-11-09T11:50:12.152Z,3.2
2022-11-09T11:51:20.741Z,2.9
2022-11-09T11:52:29.207Z,2.9
2022-11-09T11:53:42.214Z,2.9
2022-11-09T11:54:46.353Z,2.9
2022-11-09T11:55:54.753Z,2.9
2022-11-09T11:57:03.283Z,2.9
2022-11-09T11:58:11.916Z,3.2
2022-11-09T11:59:20.368Z,3.2
2022-11-09T12:00:28.879Z,3.2
2022-11-09T12:01:37.471Z,3.7
2022-11-09T12:02:46.003Z,3.7
2022-11-09T12:03:54.547Z,3.7
2022-11-09T12:05:03.015Z,3.8
2022-11-09T12:06:11.492Z,3.8
2022-11-09T12:07:19.937Z,3.8
2022-11-09T12:08:28.489Z,3.6
2022-11-09T12:09:36.958Z,3.6
2022-11-09T12:10:45.435Z,3.6
2022-11-09T12:11:54.027Z,5
2022-11-09T12:13:02.502Z,5
2022-11-09T12:14:10.953Z,5
2022-11-09T12:15:19.594Z,4.3
2022-11-09T12:16:28.059Z,4.3
2022-11-09T12:17:36.517Z,4.3
2022-11-09T12:18:45.131Z,6.4
2022-11-09T12:19:53.598Z,6.4
2022-11-09T12:21:02.007Z,6.4
2022-11-09T12:22:10.645Z,5.1
2022-11-09T12:23:19.354Z,5.1
2022-11-09T12:24:27.470Z,5.1
2022-11-09T12:25:36.721Z,4.7
2022-11-09T12:26:45.106Z,4.7
2022-11-09T12:27:53.491Z,4.7
2022-11-09T12:29:02.085Z,7.4
2022-11-09T12:30:10.476Z,7.4
2022-11-09T12:31:18.871Z,7.4
2022-11-09T12:32:27.481Z,3.8
2022-11-09T12:33:39.396Z,3.8
2022-11-09T12:34:44.281Z,3.8
2022-11-09T12:35:52.980Z,5.7
2022-11-09T12:37:01.274Z,5.7
2022-11-09T12:38:09.615Z,5.7
2022-11-09T12:39:18.170Z,4.8
2022-11-09T12:40:26.535Z,4.8
2022-11-09T12:41:34.873Z,4.8
2022-11-09T12:42:43.435Z,4.2
2022-11-09T12:43:51.787Z,4.2
2022-11-09T12:45:00.135Z,4.2
2022-11-09T12:46:08.691Z,5.3
2022-11-09T12:47:17.040Z,5.3
2022-11-09T12:48:25.385Z,5.3
2022-11-09T12:49:33.942Z,3.2
2022-11-09T12:50:42.314Z,3.2
2022-11-09T12:51:53.241Z,3.2
2022-11-09T12:52:59.260Z,3.4
2022-11-09T12:54:07.607Z,3.4
2022-11-09T12:55:15.962Z,3.4
2022-11-09T12:56:24.525Z,4
2022-11-09T12:57:32.871Z,4
2022-11-09T12:58:41.262Z,4
2022-11-09T12:59:49.808Z,5.8
2022-11-09T13:00:58.157Z,5.8
2022-11-09T13:02:06.529Z,5.8
2022-11-09T13:03:15.056Z,3
2022-11-09T13:04:23.408Z,3
2022-11-09T13:05:31.793Z,3
2022-11-09T13:06:40.356Z,3.3
2022-11-09T13:07:48.702Z,3.3
2022-11-09T13:08:57.036Z,3.3
2022-11-09T13:10:05.588Z,4.4
2022-11-09T13:11:13.936Z,4.4
2022-11-09T13:12:22.297Z,4.4
2022-11-09T13:13:30.853Z,4.8
2022-11-09T13:14:39.208Z,4.8
2022-11-09T13:15:47.589Z,4.8
2022-11-09T13:16:56.128Z,3.5
2022-11-09T13:18:04.491Z,3.5
2022-11-09T13:19:12.854Z,3.5
2022-11-09T13:20:40.738Z,5.6
2022-11-09T13:21:29.764Z,5.6
2022-11-09T13:22:38.117Z,5.6
2022-11-09T13:24:00.443Z,4.1
2022-11-09T13:24:55.022Z,4.1
2022-11-09T13:26:03.398Z,4.1
2022-11-09T13:27:11.953Z,5.1
2022-11-09T13:28:20.310Z,5.1
2022-11-09T13:29:28.672Z,5.1
2022-11-09T13:30:37.245Z,4.4
2022-11-09T13:31:45.621Z,4.4
2022-11-09T13:32:53.992Z,4.4
2022-11-09T13:34:02.542Z,4.9
2022-11-09T13:35:10.906Z,4.9
2022-11-09T13:36:19.271Z,4.9
2022-11-09T13:37:27.839Z,6.4
2022-11-09T13:38:36.207Z,6.4
2022-11-09T13:39:44.585Z,6.4
2022-11-09T13:40:53.135Z,3.4
2022-11-09T13:42:01.499Z,3.4
2022-11-09T13:43:09.857Z,3.4
2022-11-09T13:44:18.439Z,4
2022-11-09T13:45:26.810Z,4
2022-11-09T13:46:35.177Z,4
2022-11-09T13:47:43.765Z,3.9
2022-11-09T13:48:52.110Z,3.9
2022-11-09T13:50:00.471Z,3.9
2022-11-09T13:51:09.047Z,4.4
2022-11-09T13:52:17.390Z,4.4
2022-11-09T13:53:25.743Z,4.4
2022-11-09T13:54:34.340Z,5.5
2022-11-09T13:55:42.717Z,5.5
2022-11-09T13:56:51.053Z,5.5
2022-11-09T13:57:59.626Z,4.2
2022-11-09T13:59:07.993Z,4.2
2022-11-09T14:00:16.361Z,4.2
2022-11-09T14:01:24.945Z,3.9
2022-11-09T14:02:33.274Z,3.9
2022-11-09T14:03:41.644Z,3.9
2022-11-09T14:04:50.225Z,4.1
2022-11-09T14:05:58.574Z,4.1
2022-11-09T14:07:07.003Z,4.1
2022-11-09T14:08:15.515Z,3.3
2022-11-09T14:09:23.868Z,3.3
2022-11-09T14:10:32.238Z,3.3
2022-11-09T14:11:40.830Z,4
2022-11-09T14:12:49.144Z,4
2022-11-09T14:14:01.984Z,4
2022-11-09T14:15:06.087Z,4.9
2022-11-09T14:16:14.425Z,4.9
2022-11-09T14:17:22.774Z,4.9
2022-11-09T14:18:31.341Z,5
2022-11-09T14:19:39.690Z,5
2022-11-09T14:20:48.050Z,5
2022-11-09T14:21:56.625Z,6.4
2022-11-09T14:23:04.974Z,6.4
2022-11-09T14:24:13.344Z,6.4
2022-11-09T14:25:21.938Z,3.9
2022-11-09T14:26:30.295Z,3.9
2022-11-09T14:27:38.682Z,3.9
2022-11-09T14:28:47.416Z,4.3
2022-11-09T14:29:55.786Z,4.3
2022-11-09T15:04:26.371Z,0
2022-11-09T15:05:34.592Z,0
2022-11-09T15:06:45.254Z,0
2022-11-09T15:07:51.517Z,4.6
2022-11-09T15:08:59.913Z,4.6
2022-11-09T15:10:08.252Z,4.6
2022-11-09T15:11:16.829Z,5
2022-11-09T15:12:25.200Z,5
2022-11-09T15:13:33.564Z,5
2022-11-09T15:14:42.123Z,3.3
2022-11-09T15:15:50.480Z,3.3
2022-11-09T15:16:58.838Z,3.3
2022-11-09T15:18:07.419Z,4.1
2022-11-09T15:19:15.787Z,4.1
2022-11-09T15:20:24.232Z,4.1
2022-11-09T15:21:32.709Z,4.8
2022-11-09T15:22:41.097Z,4.8
2022-11-09T15:23:49.444Z,4.8
2022-11-09T15:24:58.021Z,7.5
2022-11-09T15:26:06.376Z,7.5
2022-11-09T15:27:14.743Z,7.5
2022-11-09T15:28:23.813Z,4.6
2022-11-09T15:29:31.656Z,4.6
2022-11-09T15:30:44.677Z,4.6
2022-11-09T15:31:48.645Z,5.5
2022-11-09T15:32:57.010Z,5.5
2022-11-09T15:34:05.357Z,5.5
2022-11-09T15:35:13.955Z,4.9
2022-11-09T15:36:22.440Z,4.9
2022-11-09T15:37:30.670Z,4.9
2022-11-09T15:38:39.244Z,7.3
2022-11-09T15:39:47.583Z,7.3
2022-11-09T15:40:55.940Z,7.3
2022-11-09T15:42:04.512Z,4.6
2022-11-09T15:43:12.857Z,4.6
2022-11-09T15:44:21.220Z,4.6
2022-11-09T15:45:29.774Z,5
2022-11-09T15:46:38.124Z,5
2022-11-09T15:47:46.498Z,5
2022-11-09T15:48:55.048Z,4.7
2022-11-09T15:50:03.402Z,4.7
2022-11-09T15:51:11.754Z,4.7
2022-11-09T15:52:20.337Z,4.9
2022-11-09T15:53:28.663Z,4.9
2022-11-09T15:54:37.026Z,4.9
2022-11-09T15:55:45.590Z,3
2022-11-09T15:56:53.984Z,3
2022-11-09T15:58:02.351Z,3
2022-11-09T15:59:10.926Z,4.7
2022-11-09T16:00:20.868Z,4.7
2022-11-09T16:01:27.650Z,4.7
2022-11-09T16:02:36.167Z,3.8
2022-11-09T16:03:44.525Z,3.8
2022-11-09T16:04:52.877Z,3.8
2022-11-09T16:06:01.431Z,4.3
2022-11-09T16:07:09.803Z,4.3
2022-11-09T16:08:18.454Z,4.3
2022-11-09T16:09:26.697Z,5.2
2022-11-09T16:10:35.085Z,5.2
2022-11-09T16:11:43.420Z,5.2
2022-11-09T16:12:51.990Z,4.8
2022-11-09T16:14:00.335Z,4.8